This is the latest recevied weather packets stored in our database for station/object KB8SSH. If no packets are shown the sender has not sent any weather packets the latest 10 day(s).
| Time | Temp. | Humidity | Pressure | Rain* | Wind** | Luminosity | Snow |
|---|---|---|---|---|---|---|---|
| 1777676377 | 9.44° C | 74% | 1048.4 hPa | 0 mm | - | 54 W/m² | - |
| 1777676075 | 9.44° C | 74% | 1048.1 hPa | 0 mm | - | 63 W/m² | - |
| 1777675770 | 8.89° C | 74% | 1048.1 hPa | 0 mm | - | 49 W/m² | - |
| 1777675468 | 8.89° C | 74% | 1048.1 hPa | 0 mm | - | 51 W/m² | - |
| 1777675165 | 8.89° C | 73% | 1048.1 hPa | 0 mm | - | 62 W/m² | - |
| 1777674861 | 8.89° C | 73% | 1048.1 hPa | 0 mm | - | 53 W/m² | - |
| 1777674557 | 9.44° C | 73% | 1048.1 hPa | 0 mm | - | 54 W/m² | - |
| 1777674255 | 9.44° C | 73% | 1048.1 hPa | 0 mm | - | 49 W/m² | - |
| 1777673951 | 10° C | 72% | 1048.1 hPa | 0 mm | - | 75 W/m² | - |
| 1777673648 | 10° C | 70% | 1048.1 hPa | 0 mm | - | 83 W/m² | - |
| 1777673346 | 10.56° C | 68% | 1048.4 hPa | 0 mm | - | 291 W/m² | - |
| 1777673043 | 10.56° C | 71% | 1048.1 hPa | 0 mm | - | 308 W/m² | - |
| 1777672739 | 10° C | 71% | 1048.4 hPa | 0 mm | - | 313 W/m² | - |
| 1777672435 | 9.44° C | 72% | 1048.1 hPa | 0 mm | - | 320 W/m² | - |
| 1777672131 | 9.44° C | 72% | 1048.4 hPa | 0 mm | - | 133 W/m² | - |
| 1777671826 | 10° C | 72% | 1048.4 hPa | 0 mm | - | 88 W/m² | - |
| 1777671522 | 10.56° C | 72% | 1048.4 hPa | 0 mm | - | 144 W/m² | - |
| 1777671219 | 10.56° C | 71% | 1048.1 hPa | 0 mm | - | 238 W/m² | - |
| 1777670915 | 9.44° C | 73% | 1048.1 hPa | 0 mm | - | 427 W/m² | - |
| 1777670612 | 9.44° C | 75% | 1048.1 hPa | 0 mm | - | 231 W/m² | - |
| 1777670308 | 9.44° C | 76% | 1048.1 hPa | 0 mm | - | 116 W/m² | - |
| 1777670006 | 10° C | 76% | 1048.1 hPa | 0 mm | - | 185 W/m² | - |
| 1777669697 | 8.89° C | 80% | 1047.7 hPa | 0 mm | - | 528 W/m² | - |
| 1777669394 | 8.33° C | 80% | 1047.7 hPa | 0 mm | - | 168 W/m² | - |
| 1777669090 | 8.33° C | 79% | 1047.7 hPa | 0 mm | - | 75 W/m² | - |
* Rain latest hour (hover to see other rain measurements)
** Current wind speed in m/s (hover to see current wind gust speed)